Terminal Aerodrome Forecast
Issued by NWS

Home | Current Version | Previous Version | Text Only | Print | Product List | Glossary On
Versions: 1 2 3 4 5 6 7 8 9 10 11 12 13 14 15 16
000
FTAK31 PANC 221740
TAFAIL
TAF
PAIL 221740Z 2218/2318 09003KT 6SM BR OVC009
      TEMPO 2218/2221 1 1/2SM -SN BR OVC009
     FM222100 16007KT P6SM BKN050
      TEMPO 2221/2224 3SM BR BKN015
     FM230000 18005KT P6SM VCFG SCT010 BKN050
     FM231200 06008KT P6SM SCT025 BKN080=

USA.gov is the U.S. government's official web portal to all federal, state and local government web resources and services.